Time;durP1;ratioP1;P1;durP2;ratioP2;P2;SDS_P1;SDS_P2;PMS_P1;PMS_P2;Temp;Humidity;BMP_temperature;BMP_pressure;BME280_temperature;BME280_humidity;BME280_pressure;Samples;Min_cycle;Max_cycle;Signal;HPM_P1;HPM_P2
2022/06/29 00:00:50;;;;;;;4.07;2.20;;;;;;;17.25;66.96;99345.84;5123427;27;20042;-55
2022/06/29 00:03:15;;;;;;;4.03;2.30;;;;;;;17.29;65.33;99338.75;5102505;28;20028;-54
2022/06/29 00:05:41;;;;;;;5.63;2.03;;;;;;;17.27;65.21;99340.91;5124431;27;20019;-54
2022/06/29 00:08:06;;;;;;;3.25;2.05;;;;;;;17.17;65.54;99343.72;5117971;27;20661;-55
2022/06/29 00:10:32;;;;;;;3.90;2.20;;;;;;;17.21;66.08;99342.06;5124307;27;20027;-54
2022/06/29 00:12:57;;;;;;;6.05;2.28;;;;;;;17.27;65.22;99332.00;5112371;27;20054;-55
2022/06/29 00:15:23;;;;;;;5.55;2.38;;;;;;;17.05;66.00;99346.81;5122254;27;20015;-56
2022/06/29 00:17:48;;;;;;;5.40;2.20;;;;;;;17.06;65.71;99339.47;5123023;27;20027;-55
2022/06/29 00:20:14;;;;;;;7.22;2.20;;;;;;;17.14;65.61;99338.88;5124257;27;20341;-55
2022/06/29 00:22:40;;;;;;;4.63;2.10;;;;;;;17.26;65.11;99339.31;5115110;27;20027;-55
2022/06/29 00:25:06;;;;;;;5.55;2.67;;;;;;;17.01;66.56;99324.88;5116978;27;20027;-55
2022/06/29 00:27:32;;;;;;;6.68;2.25;;;;;;;17.00;66.10;99334.09;5115726;27;20047;-54
2022/06/29 00:29:58;;;;;;;4.80;2.30;;;;;;;17.14;66.02;99325.34;5118055;27;20023;-55
2022/06/29 00:32:23;;;;;;;4.50;2.20;;;;;;;17.06;67.05;99326.75;5128080;27;20023;-55
2022/06/29 00:34:49;;;;;;;10.35;2.70;;;;;;;17.07;66.94;99327.56;5116832;27;20046;-55
2022/06/29 00:37:14;;;;;;;3.63;2.13;;;;;;;16.53;68.44;99319.22;5112316;27;20023;-57
2022/06/29 00:39:40;;;;;;;5.63;2.42;;;;;;;16.57;67.74;99325.69;5104782;27;20038;-55
2022/06/29 00:42:05;;;;;;;3.75;2.10;;;;;;;16.53;68.22;99324.63;5115172;27;20023;-56
2022/06/29 00:44:31;;;;;;;5.85;2.50;;;;;;;16.67;67.77;99327.50;5116106;27;20366;-54
2022/06/29 00:46:58;;;;;;;3.25;2.17;;;;;;;16.81;67.14;99322.31;5117557;27;20055;-58
2022/06/29 00:49:25;;;;;;;5.32;2.17;;;;;;;16.69;67.67;99327.25;5114522;27;20087;-61
2022/06/29 00:51:57;;;;;;;9.13;2.40;;;;;;;16.74;67.39;99324.50;5087114;27;20020;-56
2022/06/29 00:54:25;;;;;;;7.53;2.42;;;;;;;16.86;67.81;99314.16;5117811;27;20252;-56
2022/06/29 00:56:51;;;;;;;4.60;2.03;;;;;;;16.86;69.96;99319.59;5119940;27;20028;-55
2022/06/29 00:59:22;;;;;;;4.97;2.33;;;;;;;16.89;69.93;99319.00;5119145;27;20043;-54
2022/06/29 01:01:48;;;;;;;4.35;2.00;;;;;;;16.78;69.35;99309.38;5122281;27;20043;-54
2022/06/29 01:04:13;;;;;;;4.90;2.28;;;;;;;16.90;68.53;99312.53;5119735;27;20142;-55
2022/06/29 01:06:39;;;;;;;5.22;2.30;;;;;;;16.88;71.04;99309.28;5120191;27;20062;-54
2022/06/29 01:09:04;;;;;;;6.07;2.40;;;;;;;16.98;70.59;99303.78;5116610;27;20031;-54
2022/06/29 01:11:31;;;;;;;5.32;2.58;;;;;;;16.64;68.05;99303.72;5119127;27;20019;-55
2022/06/29 01:13:56;;;;;;;6.05;2.47;;;;;;;16.70;67.83;99297.22;5118535;27;20027;-54
2022/06/29 01:16:21;;;;;;;6.43;2.20;;;;;;;16.82;66.78;99304.97;5120993;27;20019;-54
2022/06/29 01:18:47;;;;;;;5.78;2.35;;;;;;;16.82;66.40;99310.41;5095894;28;20020;-54
2022/06/29 01:21:13;;;;;;;4.45;2.15;;;;;;;16.80;66.19;99304.47;5118824;27;20019;-55
2022/06/29 01:23:38;;;;;;;5.20;2.08;;;;;;;16.74;66.38;99302.84;5074595;28;20461;-54
2022/06/29 01:26:04;;;;;;;4.20;2.30;;;;;;;16.70;66.53;99307.19;5114414;28;20531;-54
2022/06/29 01:28:30;;;;;;;4.78;2.00;;;;;;;16.52;67.23;99309.47;5117891;28;20023;-54
2022/06/29 01:30:56;;;;;;;5.32;2.33;;;;;;;16.49;67.45;99306.53;5124997;28;20027;-55
2022/06/29 01:33:22;;;;;;;5.10;2.22;;;;;;;16.64;70.15;99302.94;5079950;28;20045;-55
2022/06/29 01:35:47;;;;;;;4.47;2.10;;;;;;;16.58;68.93;99305.66;5113531;28;20388;-55
2022/06/29 01:38:13;;;;;;;5.07;2.58;;;;;;;16.42;68.71;99306.81;5116352;28;20466;-55
2022/06/29 01:40:38;;;;;;;7.80;3.47;;;;;;;16.47;68.45;99301.38;5119587;28;20558;-54
2022/06/29 01:43:03;;;;;;;3.72;2.20;;;;;;;16.33;68.57;99298.50;5105478;28;20031;-55
2022/06/29 01:45:29;;;;;;;3.72;2.03;;;;;;;16.49;68.82;99296.50;5122325;28;20473;-55
2022/06/29 01:47:54;;;;;;;4.63;2.30;;;;;;;16.43;69.19;99291.44;5117276;28;20023;-55
2022/06/29 01:50:20;;;;;;;4.55;2.30;;;;;;;16.14;69.00;99290.19;5097056;28;20060;-57
2022/06/29 01:52:45;;;;;;;3.97;2.10;;;;;;;16.33;68.87;99287.69;5102146;28;20027;-54
2022/06/29 01:55:11;;;;;;;5.95;2.47;;;;;;;16.30;68.86;99287.41;5101159;28;20437;-54
2022/06/29 01:57:36;;;;;;;4.75;2.30;;;;;;;16.26;71.65;99286.38;5116497;28;20476;-55
2022/06/29 02:00:02;;;;;;;7.00;2.50;;;;;;;16.20;70.88;99282.91;5121991;28;20031;-54
2022/06/29 02:02:27;;;;;;;5.90;2.17;;;;;;;16.32;70.62;99280.63;5120552;28;20030;-55
2022/06/29 02:04:53;;;;;;;5.60;2.40;;;;;;;16.31;74.88;99280.94;5126401;28;20031;-54
2022/06/29 02:07:18;;;;;;;5.00;2.22;;;;;;;16.25;74.67;99280.16;5113617;28;20332;-55
2022/06/29 02:09:44;;;;;;;3.15;2.00;;;;;;;16.07;71.65;99278.88;5119123;28;20515;-55
2022/06/29 02:12:09;;;;;;;3.08;2.10;;;;;;;16.48;68.87;99272.47;5095640;28;20024;-55
2022/06/29 02:14:35;;;;;;;6.47;2.38;;;;;;;16.56;69.21;99271.88;5115815;28;20027;-55
2022/06/29 02:17:00;;;;;;;3.40;1.92;;;;;;;16.57;68.81;99266.19;5115536;28;20024;-54
2022/06/29 02:19:25;;;;;;;3.38;1.90;;;;;;;16.67;69.32;99261.75;5110327;28;20020;-55
2022/06/29 02:21:51;;;;;;;4.70;2.20;;;;;;;16.59;73.30;99263.97;5116330;28;20019;-55
2022/06/29 02:24:16;;;;;;;4.57;2.20;;;;;;;16.53;74.08;99259.69;5113899;28;20032;-54
2022/06/29 02:26:42;;;;;;;4.13;2.25;;;;;;;16.31;75.87;99264.72;5111372;28;20039;-54
2022/06/29 02:29:07;;;;;;;9.00;2.50;;;;;;;16.02;77.26;99265.38;5119801;28;20034;-55
2022/06/29 02:37:00;;;;;;;3.08;2.17;;;;;;;16.49;71.14;99263.25;5096402;27;20031;-55
2022/06/29 02:39:26;;;;;;;6.45;2.40;;;;;;;16.52;74.80;99257.28;5122179;27;20023;-55
2022/06/29 02:41:54;;;;;;;5.88;2.40;;;;;;;16.61;74.46;99253.69;5099430;27;20031;-55
2022/06/29 02:44:19;;;;;;;5.70;2.50;;;;;;;16.46;69.21;99253.00;5125022;27;20082;-55
2022/06/29 02:46:45;;;;;;;4.25;2.20;;;;;;;16.56;68.58;99242.91;5122563;27;20019;-55
2022/06/29 02:49:10;;;;;;;4.13;2.30;;;;;;;16.63;68.97;99242.59;5100123;27;20015;-54
2022/06/29 02:51:36;;;;;;;4.53;2.53;;;;;;;16.69;70.38;99246.88;5101796;27;20019;-55
2022/06/29 02:54:01;;;;;;;5.78;2.28;;;;;;;16.76;69.70;99246.56;5122245;27;20027;-54
2022/06/29 02:56:26;;;;;;;6.63;2.20;;;;;;;16.91;69.13;99232.91;5104487;27;20027;-55
2022/06/29 02:58:52;;;;;;;4.65;2.40;;;;;;;17.01;69.93;99235.53;5104080;27;20034;-54
2022/06/29 03:01:17;;;;;;;3.92;2.22;;;;;;;17.01;70.79;99240.94;5118715;27;20032;-55
2022/06/29 03:03:43;;;;;;;4.25;2.13;;;;;;;17.04;70.48;99243.09;5103422;27;20477;-55
2022/06/29 03:06:08;;;;;;;6.18;2.17;;;;;;;16.91;71.28;99251.88;5119664;27;20055;-55
2022/06/29 03:08:33;;;;;;;7.82;2.22;;;;;;;16.75;70.46;99259.28;5122631;27;20026;-56
2022/06/29 03:10:59;;;;;;;5.57;2.30;;;;;;;16.63;70.66;99248.00;5120132;27;20024;-55
2022/06/29 03:13:24;;;;;;;4.10;2.33;;;;;;;16.62;71.91;99249.06;5123565;27;20023;-55
2022/06/29 03:15:51;;;;;;;5.65;2.20;;;;;;;16.64;72.33;99235.28;5115961;27;20030;-55
2022/06/29 03:18:17;;;;;;;4.30;2.60;;;;;;;16.66;75.82;99235.81;5118000;27;20110;-54
2022/06/29 03:20:42;;;;;;;7.53;2.58;;;;;;;16.66;77.72;99238.50;5118634;27;20034;-56
2022/06/29 03:23:07;;;;;;;4.43;2.40;;;;;;;16.52;78.57;99236.44;5119601;27;20101;-55
2022/06/29 03:25:33;;;;;;;6.10;2.55;;;;;;;16.57;78.72;99228.31;5119127;27;20015;-55
2022/06/29 03:27:58;;;;;;;3.50;2.53;;;;;;;16.64;77.17;99232.56;5116186;27;20031;-54
2022/06/29 03:30:24;;;;;;;6.13;3.30;;;;;;;16.70;80.16;99232.25;5122836;27;20465;-53
2022/06/29 03:32:49;;;;;;;4.10;2.40;;;;;;;16.66;82.08;99235.81;5102974;27;20088;-55
2022/06/29 03:35:14;;;;;;;4.03;2.70;;;;;;;16.43;81.05;99237.34;5119587;27;20027;-55
2022/06/29 03:37:40;;;;;;;7.30;2.90;;;;;;;16.09;79.97;99241.56;5117688;27;20046;-55
2022/06/29 03:40:06;;;;;;;4.32;2.50;;;;;;;16.12;78.92;99235.59;5122789;27;20505;-55
2022/06/29 03:42:31;;;;;;;8.88;2.38;;;;;;;16.11;75.04;99236.69;5122705;27;20026;-54
2022/06/29 03:44:56;;;;;;;6.95;2.75;;;;;;;16.32;78.95;99231.16;5128660;27;20389;-55
2022/06/29 03:47:22;;;;;;;6.05;2.67;;;;;;;16.38;78.89;99233.56;5108735;27;20054;-55
2022/06/29 03:49:48;;;;;;;7.15;2.50;;;;;;;16.10;79.44;99235.09;5118269;27;20107;-55
2022/06/29 03:52:14;;;;;;;5.50;2.47;;;;;;;16.10;77.21;99224.28;5119442;27;20527;-55
2022/06/29 03:54:39;;;;;;;11.13;3.00;;;;;;;16.12;75.64;99232.09;5119621;27;20042;-55
2022/06/29 03:57:04;;;;;;;5.70;2.63;;;;;;;16.05;75.33;99232.41;5118400;27;20019;-56
2022/06/29 03:59:30;;;;;;;5.90;2.80;;;;;;;16.17;76.31;99229.34;5114761;27;20028;-55
2022/06/29 04:01:55;;;;;;;6.13;3.00;;;;;;;16.36;75.38;99226.81;5121505;27;20040;-55
2022/06/29 04:04:21;;;;;;;8.55;2.50;;;;;;;16.54;75.76;99228.84;5117859;27;20382;-55
2022/06/29 04:06:46;;;;;;;4.60;2.55;;;;;;;16.71;75.59;99233.88;5109699;27;20462;-56
2022/06/29 04:09:11;;;;;;;12.95;2.92;;;;;;;16.87;77.45;99233.78;5125105;27;20034;-55
2022/06/29 04:11:49;;;;;;;6.22;2.65;;;;;;;16.85;79.27;99239.47;5118200;27;20030;-55
2022/06/29 04:14:18;;;;;;;8.52;2.90;;;;;;;16.65;80.05;99236.88;5122824;27;20057;-55
2022/06/29 04:16:45;;;;;;;13.05;3.53;;;;;;;16.64;79.81;99235.28;5125485;27;20531;-55
2022/06/29 04:19:10;;;;;;;10.70;2.88;;;;;;;16.63;79.76;99229.06;5104172;27;20377;-56
2022/06/29 04:21:35;;;;;;;6.78;2.95;;;;;;;16.56;81.62;99226.66;5114658;27;20085;-55
2022/06/29 04:24:01;;;;;;;10.68;2.85;;;;;;;16.56;82.00;99226.66;5112303;27;20036;-55
2022/06/29 04:26:26;;;;;;;9.18;2.60;;;;;;;16.67;80.39;99232.00;5124047;27;20156;-56
2022/06/29 04:28:52;;;;;;;5.03;2.65;;;;;;;16.65;81.33;99228.75;5120013;27;20372;-55
2022/06/29 04:31:18;;;;;;;6.07;2.90;;;;;;;16.71;80.05;99231.16;5101580;27;20019;-56
2022/06/29 04:33:43;;;;;;;6.97;2.60;;;;;;;16.84;81.70;99231.63;5114803;27;20019;-56
2022/06/29 04:36:08;;;;;;;9.18;2.78;;;;;;;16.77;83.31;99234.63;5123409;27;20500;-55
2022/06/29 04:38:34;;;;;;;9.15;2.90;;;;;;;16.74;83.91;99229.78;5121769;27;20349;-55
2022/06/29 04:40:59;;;;;;;6.07;2.70;;;;;;;16.76;83.27;99228.41;5117015;27;20027;-56
2022/06/29 04:43:29;;;;;;;6.15;2.63;;;;;;;16.71;84.36;99227.66;5118127;27;20059;-54
2022/06/29 04:48:42;;;;;;;6.40;2.70;;;;;;;16.50;83.77;99222.41;5117001;27;20058;-55
2022/06/29 04:51:07;;;;;;;4.90;2.58;;;;;;;16.70;81.59;99218.72;5099357;27;20028;-55
2022/06/29 04:53:33;;;;;;;4.97;2.67;;;;;;;16.61;76.38;99226.63;5117274;27;20108;-55
2022/06/29 04:55:58;;;;;;;4.45;2.67;;;;;;;16.83;76.88;99216.50;5123608;27;20492;-56
2022/06/29 04:58:24;;;;;;;6.82;2.90;;;;;;;16.97;79.15;99215.56;5112491;27;20378;-56
2022/06/29 05:00:49;;;;;;;10.23;2.95;;;;;;;16.91;82.65;99222.09;5097096;28;20047;-56
2022/06/29 05:03:14;;;;;;;6.10;3.28;;;;;;;16.86;83.41;99222.13;5095738;28;20043;-55
2022/06/29 05:05:40;;;;;;;9.73;2.90;;;;;;;16.79;84.08;99230.56;5095626;28;20028;-56
2022/06/29 05:08:05;;;;;;;10.00;2.85;;;;;;;16.80;84.62;99226.00;5101364;28;20035;-56
2022/06/29 05:10:31;;;;;;;7.45;2.67;;;;;;;16.84;83.01;99228.94;5103586;28;20042;-55
2022/06/29 05:12:57;;;;;;;6.57;2.83;;;;;;;16.89;81.88;99213.44;5101435;28;20050;-55
2022/06/29 05:15:22;;;;;;;8.65;2.60;;;;;;;17.10;81.47;99224.09;5095423;28;20027;-56
2022/06/29 05:17:48;;;;;;;5.65;2.75;;;;;;;17.12;82.83;99219.19;5096676;28;20020;-56
2022/06/29 05:20:14;;;;;;;5.22;2.78;;;;;;;17.15;82.71;99215.94;5095199;28;20024;-56
2022/06/29 05:22:39;;;;;;;7.72;2.58;;;;;;;17.10;83.54;99211.38;5097495;28;20039;-55
2022/06/29 05:25:05;;;;;;;8.15;2.83;;;;;;;16.94;83.14;99215.31;5100970;28;20441;-56
2022/06/29 05:27:31;;;;;;;4.95;2.53;;;;;;;16.97;82.92;99209.31;5096233;28;20053;-55
2022/06/29 05:29:56;;;;;;;7.47;2.47;;;;;;;16.92;84.29;99204.75;5093684;28;20498;-56
2022/06/29 05:32:22;;;;;;;5.68;3.00;;;;;;;16.85;84.73;99204.28;5091875;28;20111;-55
2022/06/29 05:34:47;;;;;;;5.43;2.65;;;;;;;16.80;85.24;99201.63;5099321;28;20028;-55
2022/06/29 05:37:13;;;;;;;5.20;2.63;;;;;;;16.68;83.18;99198.47;5096779;28;20085;-56
2022/06/29 05:39:38;;;;;;;6.43;2.47;;;;;;;16.80;78.60;99199.72;5098102;28;20667;-56
2022/06/29 05:42:04;;;;;;;5.50;2.53;;;;;;;16.95;75.10;99198.78;5099561;28;20031;-56
2022/06/29 05:44:29;;;;;;;6.13;2.45;;;;;;;17.21;75.69;99199.34;5091483;28;20094;-55
2022/06/29 05:46:55;;;;;;;9.02;2.88;;;;;;;17.23;77.61;99193.63;5101712;28;20032;-58
2022/06/29 05:49:20;;;;;;;6.93;3.03;;;;;;;17.16;76.25;99201.28;5095277;28;20360;-56
2022/06/29 05:51:46;;;;;;;3.80;2.50;;;;;;;17.18;73.42;99209.94;5090443;28;20030;-55
2022/06/29 05:54:11;;;;;;;11.13;2.53;;;;;;;17.30;71.93;99206.81;5053505;28;20028;-55
2022/06/29 05:56:36;;;;;;;4.47;2.50;;;;;;;17.43;75.29;99211.56;5094724;28;20028;-57
2022/06/29 05:59:02;;;;;;;4.78;2.60;;;;;;;17.44;75.54;99218.59;5092004;28;20059;-56
2022/06/29 06:01:28;;;;;;;4.03;2.60;;;;;;;17.42;73.65;99213.47;5115937;28;20046;-57
2022/06/29 06:03:53;;;;;;;4.10;2.40;;;;;;;17.29;72.66;99210.63;5116746;28;20043;-56
2022/06/29 06:06:18;;;;;;;5.78;2.25;;;;;;;17.45;70.61;99220.22;5117254;28;20042;-56
2022/06/29 06:08:44;;;;;;;5.75;2.47;;;;;;;17.52;69.91;99211.72;5115761;28;20031;-53
2022/06/29 06:11:09;;;;;;;7.35;2.50;;;;;;;17.76;70.40;99215.25;5116575;27;20291;-53
2022/06/29 06:13:35;;;;;;;5.45;2.50;;;;;;;17.87;71.62;99213.22;5106295;27;20041;-54
2022/06/29 06:16:00;;;;;;;5.38;2.40;;;;;;;17.94;73.00;99210.16;5112330;27;20492;-55
2022/06/29 06:18:25;;;;;;;6.47;2.70;;;;;;;18.14;73.06;99215.31;5121084;27;20027;-54
2022/06/29 06:20:51;;;;;;;5.05;2.40;;;;;;;18.45;70.98;99215.69;5123054;27;20031;-53
2022/06/29 06:23:16;;;;;;;6.68;2.80;;;;;;;18.89;71.29;99213.66;5113919;27;20024;-54
2022/06/29 06:25:42;;;;;;;9.18;3.03;;;;;;;19.02;70.67;99210.19;5122887;27;20031;-55
2022/06/29 06:28:07;;;;;;;7.00;2.67;;;;;;;19.13;70.24;99208.88;5108268;27;20031;-54
2022/06/29 06:30:33;;;;;;;4.65;2.35;;;;;;;18.78;72.90;99217.66;5103974;28;20042;-53
2022/06/29 06:32:58;;;;;;;4.93;2.50;;;;;;;19.04;72.60;99209.88;5117832;27;20480;-54
2022/06/29 06:35:24;;;;;;;5.65;2.70;;;;;;;19.02;72.56;99209.34;5117796;27;20369;-54
2022/06/29 06:37:51;;;;;;;6.45;2.50;;;;;;;18.96;67.30;99203.22;5100299;28;20028;-54
2022/06/29 06:43:00;;;;;;;11.43;2.80;;;;;;;18.66;71.73;99218.06;5120811;27;20489;-52
2022/06/29 06:45:26;;;;;;;5.13;2.35;;;;;;;18.54;69.42;99219.31;5120169;27;20031;-54
2022/06/29 06:47:52;;;;;;;6.60;2.53;;;;;;;18.37;68.99;99218.25;5120791;27;20488;-54
2022/06/29 06:50:17;;;;;;;6.15;2.50;;;;;;;18.72;68.27;99219.59;5123801;27;20401;-57
2022/06/29 06:52:43;;;;;;;5.28;2.40;;;;;;;18.88;67.68;99214.75;5105622;27;20035;-54
2022/06/29 06:55:08;;;;;;;4.90;2.50;;;;;;;18.95;66.06;99215.19;5122319;27;20035;-54
2022/06/29 06:57:34;;;;;;;5.63;2.38;;;;;;;18.91;65.87;99214.97;5119486;27;20023;-56
2022/06/29 06:59:59;;;;;;;7.18;2.72;;;;;;;18.72;63.40;99209.56;5100482;27;20072;-54
2022/06/29 07:02:25;;;;;;;6.07;2.60;;;;;;;18.75;64.46;99219.84;5121234;27;20032;-54
2022/06/29 07:04:50;;;;;;;5.63;2.67;;;;;;;19.04;63.02;99210.66;5117074;27;20026;-56
2022/06/29 07:07:15;;;;;;;4.68;2.55;;;;;;;19.05;63.76;99211.50;5104252;27;20028;-54
2022/06/29 07:09:41;;;;;;;6.40;2.63;;;;;;;19.18;62.41;99211.50;5101074;27;20072;-56
2022/06/29 07:12:07;;;;;;;4.90;2.20;;;;;;;19.36;62.48;99217.16;5122980;27;20068;-56
2022/06/29 07:14:32;;;;;;;8.98;3.28;;;;;;;19.31;61.31;99212.63;5107793;27;20153;-55
2022/06/29 07:16:57;;;;;;;7.85;2.60;;;;;;;19.50;61.59;99214.47;5121885;27;20030;-55
2022/06/29 07:19:23;;;;;;;8.25;2.60;;;;;;;19.69;61.45;99217.09;5115168;27;20023;-55
2022/06/29 07:21:48;;;;;;;7.15;2.55;;;;;;;19.89;61.67;99211.22;5107294;27;20027;-55
2022/06/29 07:24:14;;;;;;;6.95;2.47;;;;;;;19.61;62.58;99216.66;5120045;27;20031;-57
2022/06/29 07:26:39;;;;;;;11.38;2.78;;;;;;;19.56;61.67;99219.47;5120202;27;20031;-55
2022/06/29 07:29:05;;;;;;;10.13;2.90;;;;;;;19.73;61.22;99209.94;5121801;27;20020;-55
2022/06/29 07:31:30;;;;;;;16.60;2.95;;;;;;;19.95;61.08;99206.50;5121527;27;20461;-54
2022/06/29 07:33:55;;;;;;;9.68;2.50;;;;;;;19.84;60.60;99211.34;5121765;27;20364;-56
2022/06/29 07:36:21;;;;;;;8.88;2.95;;;;;;;19.86;62.00;99211.03;5123762;27;20057;-53
2022/06/29 07:38:46;;;;;;;9.80;2.60;;;;;;;19.54;65.10;99213.53;5119131;27;20028;-55
2022/06/29 07:41:12;;;;;;;9.93;2.83;;;;;;;19.70;65.09;99210.56;5118938;27;20237;-55
2022/06/29 07:43:37;;;;;;;14.90;3.13;;;;;;;19.72;66.33;99208.31;5121571;27;20030;-54
2022/06/29 07:46:03;;;;;;;8.95;2.95;;;;;;;19.71;66.37;99207.53;5118915;27;20016;-55
2022/06/29 07:48:28;;;;;;;21.17;3.05;;;;;;;19.77;66.33;99200.09;5119146;27;20058;-56
2022/06/29 07:50:54;;;;;;;17.88;3.30;;;;;;;19.70;66.97;99205.13;5120886;27;20038;-55
2022/06/29 07:53:20;;;;;;;27.65;3.60;;;;;;;19.76;66.10;99203.91;5105888;27;20024;-55
2022/06/29 07:55:45;;;;;;;20.33;3.42;;;;;;;20.09;65.17;99201.03;5120008;27;20393;-55
2022/06/29 07:58:14;;;;;;;24.15;3.22;;;;;;;19.97;64.64;99202.38;5122142;27;20037;-54
2022/06/29 08:00:40;;;;;;;31.27;4.93;;;;;;;20.04;64.28;99205.47;5118538;27;20043;-56
2022/06/29 08:03:06;;;;;;;45.05;4.30;;;;;;;19.70;65.30;99205.94;5117123;27;20179;-55
2022/06/29 08:05:31;;;;;;;47.78;4.95;;;;;;;19.76;65.35;99203.91;5123087;27;20032;-54
2022/06/29 08:07:56;;;;;;;42.10;5.80;;;;;;;19.78;64.94;99212.56;5126734;27;20469;-55
2022/06/29 08:10:22;;;;;;;42.30;4.82;;;;;;;20.20;63.55;99216.81;5113080;27;20555;-55
2022/06/29 08:12:47;;;;;;;61.50;4.72;;;;;;;19.96;63.87;99216.25;5098205;27;20366;-56
2022/06/29 08:15:15;;;;;;;48.83;4.93;;;;;;;19.88;64.81;99217.78;5121910;27;20434;-55
2022/06/29 08:17:40;;;;;;;53.33;5.75;;;;;;;20.04;63.81;99208.19;5107974;27;20035;-56
2022/06/29 08:20:06;;;;;;;52.72;4.93;;;;;;;19.86;63.55;99209.13;5118195;27;20020;-57
2022/06/29 08:22:32;;;;;;;35.00;4.88;;;;;;;20.12;63.91;99208.56;5097432;28;20492;-54
2022/06/29 08:24:57;;;;;;;49.65;5.15;;;;;;;20.17;63.24;99203.03;5102672;27;20044;-55
2022/06/29 08:27:31;;;;;;;25.95;4.03;;;;;;;19.97;62.86;99205.09;5110015;27;20415;-55
2022/06/29 08:29:57;;;;;;;30.33;4.13;;;;;;;19.94;63.40;99205.69;5096276;27;20490;-55
2022/06/29 08:32:22;;;;;;;47.50;4.97;;;;;;;19.91;63.05;99205.50;5120624;27;20027;-55
2022/06/29 08:34:48;;;;;;;32.85;4.50;;;;;;;19.93;64.28;99209.53;5118576;27;20034;-53
2022/06/29 08:37:13;;;;;;;39.28;4.65;;;;;;;20.09;63.35;99207.25;5119420;27;20050;-55
2022/06/29 08:39:39;;;;;;;33.72;5.10;;;;;;;20.25;62.91;99205.03;5098297;28;20019;-55
2022/06/29 08:42:05;;;;;;;40.50;4.68;;;;;;;20.18;62.54;99210.06;5120235;27;20035;-55
2022/06/29 08:44:34;;;;;;;56.83;6.13;;;;;;;20.23;63.00;99207.25;5116954;27;20384;-56
2022/06/29 08:47:03;;;;;;;31.25;4.25;;;;;;;20.54;62.98;99201.06;5095852;28;20024;-56
2022/06/29 08:49:30;;;;;;;46.75;5.07;;;;;;;20.45;62.66;99204.53;5121748;27;20032;-55
2022/06/29 08:51:56;;;;;;;38.10;4.50;;;;;;;21.08;61.05;99197.28;5101322;27;20030;-54
2022/06/29 08:54:23;;;;;;;41.83;5.20;;;;;;;21.05;61.66;99205.28;5096596;27;20027;-55
2022/06/29 08:56:48;;;;;;;34.08;5.15;;;;;;;21.19;61.26;99199.75;5082946;27;20035;-55
2022/06/29 08:59:14;;;;;;;37.80;4.80;;;;;;;21.22;61.58;99208.09;5123539;27;20393;-56
2022/06/29 09:01:40;;;;;;;42.88;5.07;;;;;;;21.74;60.96;99211.06;5084863;27;20103;-56
2022/06/29 09:04:07;;;;;;;33.42;5.15;;;;;;;21.79;59.38;99209.28;5101760;27;20027;-56
2022/06/29 09:06:34;;;;;;;41.40;4.55;;;;;;;22.00;58.25;99218.50;5092509;28;20043;-56
2022/06/29 09:08:59;;;;;;;46.72;4.88;;;;;;;21.90;58.62;99213.34;5117277;27;20050;-56
2022/06/29 09:11:28;;;;;;;38.22;4.88;;;;;;;21.91;58.51;99217.66;5119105;27;20080;-56
2022/06/29 09:14:15;;;;;;;30.77;5.57;;;;;;;21.82;57.91;99217.66;5117456;27;20530;-56
2022/06/29 09:17:02;;;;;;;39.78;4.38;;;;;;;22.27;56.76;99219.38;5100702;28;20043;-55
2022/06/29 09:19:37;;;;;;;34.08;4.28;;;;;;;21.99;56.86;99216.91;5119513;27;20074;-56
2022/06/29 09:22:02;;;;;;;34.45;3.92;;;;;;;22.00;56.78;99218.50;5115323;28;20031;-54
2022/06/29 09:24:29;;;;;;;33.67;4.38;;;;;;;22.13;56.01;99223.00;5114278;27;20019;-55
2022/06/29 09:26:56;;;;;;;27.17;4.28;;;;;;;22.16;56.78;99224.28;5099478;28;20381;-55
2022/06/29 09:29:24;;;;;;;21.95;3.70;;;;;;;21.87;57.36;99224.91;5113566;28;20084;-55
2022/06/29 09:32:01;;;;;;;30.55;4.55;;;;;;;21.76;57.17;99229.81;5107517;28;20403;-55
2022/06/29 09:34:42;;;;;;;25.65;4.03;;;;;;;21.83;57.36;99229.38;5114892;28;20121;-54
2022/06/29 09:37:10;;;;;;;22.02;3.72;;;;;;;21.80;57.42;99219.91;5115594;28;20034;-55
2022/06/29 09:39:37;;;;;;;28.05;4.68;;;;;;;21.67;57.36;99220.81;5101331;28;20381;-55
2022/06/29 09:42:06;;;;;;;21.85;3.55;;;;;;;21.82;56.77;99228.56;5116892;28;20024;-55
2022/06/29 09:44:32;;;;;;;20.50;3.50;;;;;;;21.73;56.63;99223.06;5119392;28;20546;-55
2022/06/29 09:46:57;;;;;;;21.30;3.33;;;;;;;21.39;57.81;99228.41;5082288;27;20058;-55
2022/06/29 09:49:27;;;;;;;26.13;3.65;;;;;;;21.39;57.61;99220.22;5107717;27;20082;-55
2022/06/29 09:51:57;;;;;;;16.88;3.70;;;;;;;21.69;57.01;99234.94;5123392;27;20030;-55
2022/06/29 09:54:36;;;;;;;18.85;3.92;;;;;;;21.90;56.62;99224.25;5113752;27;20019;-55
2022/06/29 09:57:02;;;;;;;14.95;3.13;;;;;;;21.92;56.93;99222.00;5107337;27;20051;-54
2022/06/29 10:02:34;;;;;;;21.40;3.83;;;;;;;22.01;57.12;99217.34;5118637;27;20042;-55
2022/06/29 10:05:04;;;;;;;15.27;3.72;;;;;;;22.51;54.84;99219.66;5117894;27;20572;-56
2022/06/29 10:07:30;;;;;;;16.85;3.92;;;;;;;22.33;54.36;99218.88;5121006;27;20024;-56
2022/06/29 10:09:59;;;;;;;9.50;3.30;;;;;;;22.71;53.56;99214.69;5118256;27;20035;-55
2022/06/29 10:15:52;;;;;;;14.52;3.35;;;;;;;22.33;54.91;99213.41;5116219;27;20078;-54
2022/06/29 10:18:35;;;;;;;12.10;3.30;;;;;;;22.72;53.52;99205.38;5124273;27;20023;-55
2022/06/29 10:21:01;;;;;;;13.43;3.47;;;;;;;23.11;53.04;99211.72;5118890;27;20420;-55
2022/06/29 10:23:45;;;;;;;9.98;3.63;;;;;;;22.97;52.52;99207.28;5081846;27;20028;-55
2022/06/29 10:26:35;;;;;;;14.90;3.92;;;;;;;23.28;52.16;99211.69;5117459;27;20031;-54
2022/06/29 10:29:09;;;;;;;15.60;3.38;;;;;;;22.60;53.09;99214.22;5117925;27;20083;-54
2022/06/29 10:31:49;;;;;;;24.77;3.53;;;;;;;22.63;53.51;99213.56;5114252;27;20023;-55
2022/06/29 10:34:34;;;;;;;18.60;4.20;;;;;;;22.93;53.05;99206.28;5119396;27;20031;-56
2022/06/29 10:37:00;;;;;;;20.13;3.53;;;;;;;22.20;54.66;99206.19;5097119;27;20037;-56
2022/06/29 10:39:25;;;;;;;12.20;3.75;;;;;;;22.48;54.15;99220.31;5116656;27;20036;-57
2022/06/29 10:45:03;;;;;;;17.98;3.55;;;;;;;23.71;51.09;99213.41;5117406;27;20037;-57
2022/06/29 10:47:29;;;;;;;30.45;4.03;;;;;;;23.51;50.63;99205.94;5123738;27;20055;-56
2022/06/29 10:50:19;;;;;;;19.67;4.13;;;;;;;23.50;51.16;99212.56;5103341;27;20139;-55
2022/06/29 10:52:45;;;;;;;;;;;;;;;23.64;50.03;99210.41;5109247;27;20066;-55
2022/06/29 10:55:11;;;;;;;24.45;4.43;;;;;;;23.42;51.46;99206.81;5115359;27;20537;-55
2022/06/29 10:57:39;;;;;;;26.08;4.30;;;;;;;24.03;49.90;99206.50;5119864;27;20028;-55
2022/06/29 11:00:10;;;;;;;26.55;4.10;;;;;;;23.63;49.91;99201.38;5118053;27;20063;-55
2022/06/29 11:02:36;;;;;;;24.13;4.95;;;;;;;23.03;52.41;99199.69;5120388;27;20080;-55
2022/06/29 11:05:02;;;;;;;33.80;4.70;;;;;;;23.10;51.30;99193.75;5117525;27;20027;-55
2022/06/29 11:12:55;;;;;;;28.25;4.40;;;;;;;24.19;50.71;99192.19;5119509;27;20030;-56
2022/06/29 11:15:39;;;;;;;25.90;4.25;;;;;;;23.69;51.83;99200.06;5122017;27;20797;-54
2022/06/29 11:18:26;;;;;;;22.75;5.07;;;;;;;23.97;50.50;99199.63;5116979;27;20520;-55
2022/06/29 11:20:52;;;;;;;17.33;4.60;;;;;;;23.41;52.38;99187.97;5119287;27;20053;-55
2022/06/29 11:23:19;;;;;;;20.02;4.05;;;;;;;23.66;51.63;99194.44;5120331;27;20450;-55
2022/06/29 11:25:47;;;;;;;17.27;4.18;;;;;;;23.76;51.27;99204.25;5112238;27;20023;-55
2022/06/29 11:28:18;;;;;;;14.80;3.75;;;;;;;23.09;52.22;99205.78;5118633;27;20066;-55
2022/06/29 11:31:03;;;;;;;16.20;3.95;;;;;;;22.95;53.30;99192.31;5103433;27;20450;-56
2022/06/29 11:33:30;;;;;;;17.65;4.10;;;;;;;22.74;54.91;99192.16;5122707;27;20035;-55
2022/06/29 11:35:56;;;;;;;18.33;4.05;;;;;;;23.02;53.48;99182.50;5112223;27;20031;-55
2022/06/29 11:38:26;;;;;;;17.27;4.13;;;;;;;22.79;53.92;99178.38;5117378;27;20076;-54
2022/06/29 11:40:54;;;;;;;17.02;3.90;;;;;;;23.79;52.37;99177.03;5101652;27;20117;-55
2022/06/29 11:43:20;;;;;;;19.63;4.30;;;;;;;24.00;51.62;99168.03;5121941;27;20027;-54
2022/06/29 11:45:52;;;;;;;13.43;3.78;;;;;;;24.25;49.92;99175.25;5102093;27;20031;-54
2022/06/29 11:48:18;;;;;;;19.60;4.22;;;;;;;25.26;48.28;99156.84;5119539;27;20536;-55
2022/06/29 11:50:56;;;;;;;15.43;4.25;;;;;;;25.37;47.12;99156.06;5114924;27;20036;-55
2022/06/29 11:53:44;;;;;;;20.98;4.00;;;;;;;26.51;45.45;99151.59;5114766;27;20051;-55
2022/06/29 11:56:17;;;;;;;16.55;4.00;;;;;;;26.46;44.94;99147.16;5128711;27;20034;-56